EBU weather

Saint-Étienne-Bouthéon Airport
Saint-Étienne/Bouthéon, Rhône Alpes, France

Public forecast

Using degrees Celsius for public forecast. Weather courtesy of forecast.io.

METAR (pilot weather report)

Retrieved 2019/07/24 01:30 UTC (17 minutes ago):

LFMH 240130Z AUTO 16007KT CAVOK 22/16 Q1017

TAF (pilot weather forecast)

Retrieved 2019/07/23 20:07 UTC (6 hours ago):

TAF LFBE 232000Z 2320/2412 CNL= TAF LFMH 232000Z 2320/2415 CNL